Geian Maru — JD4125 — position and weather

sailwx.info

Track history (hours):
 
Tides and Currents Weather Stations Pressure Air Temp Water Temp Dewpoint Dewpoint Depression Visibility Wind Speed Wind Dir Waves Ship Positions

Geian Maru

Last reported at 2018-Jan-12 07:57 UTC. Time now 2018-Jan-20 01:13 UTC.
Position N 34°04' E 132°44'.

Length 62 m; draft 4.3 m.

Type: Cargo ship. MMSI: 431008867.

Date/timePositionNaut miles runAvg speedWind from/ knotsBaromVisibWave heightAir tempDewpointWater temp
2018-Jan-12 07:57N 34°04' E 132°44'512.0
2018-Jan-12 07:30N 34°01' E 132°38'712.0
2018-Jan-12 06:57N 33°57' E 132°32'3311.2
2018-Jan-12 04:02N 33°35' E 132°02'610.6
2018-Jan-12 03:27N 33°31' E 131°58'510.9
2018-Jan-12 03:00N 33°28' E 131°53'611.2
2018-Jan-12 02:29N 33°24' E 131°47'611.6
2018-Jan-12 02:00N 33°21' E 131°42'5 0.6
2018-Jan-11 17:26N 33°16' E 131°40'6 8.4
2018-Jan-11 16:45N 33°22' E 131°41'1 4.7
2018-Jan-11 16:30N 33°23' E 131°41'0 0.0
2018-Jan-11 15:59N 33°23' E 131°41'0 0.0
2018-Jan-11 15:29N 33°23' E 131°41'0 0.0
2018-Jan-11 14:59N 33°23' E 131°41'0 0.1
2018-Jan-11 14:29N 33°23' E 131°41'0 0.0
2018-Jan-11 13:41N 33°23' E 131°41'0 0.3
2018-Jan-11 13:29N 33°23' E 131°41'0 0.0
2018-Jan-11 12:59N 33°23' E 131°41'0 0.0
2018-Jan-11 12:23N 33°23' E 131°41'0 0.0
2018-Jan-11 11:59N 33°23' E 131°41'0 0.0
2018-Jan-11 11:17N 33°23' E 131°41'0 0.0
2018-Jan-11 10:59N 33°23' E 131°41'0 0.0
2018-Jan-11 10:29N 33°23' E 131°41'0 0.1
2018-Jan-11 09:52N 33°23' E 131°41'1810.8
2018-Jan-11 08:11N 33°39' E 131°52'11 9.7
2018-Jan-11 07:01N 33°46' E 132°03'0 4.3
2018-Jan-11 07:01N 33°46' E 132°03'3210.3
2018-Jan-11 03:55N 34°03' E 132°35'511.8
2018-Jan-11 03:30N 34°08' E 132°37'5 1.0
2018-Jan-10 22:14N 34°13' E 132°37'  
2018-Jan-07 02:28N 34°25' E 134°22'712.2
2018-Jan-07 01:53N 34°28' E 134°30'512.2
2018-Jan-07 01:30N 34°30' E 134°35'1212.5
2018-Jan-07 00:31N 34°34' E 134°49'713.1
2018-Jan-07 00:00N 34°37' E 134°57'611.0
2018-Jan-06 23:30N 34°36' E 135°03'510.4
2018-Jan-06 23:00N 34°36' E 135°09'611.6
2018-Jan-06 22:30N 34°37' E 135°16'611.5
2018-Jan-06 22:01N 34°38' E 135°23'4 7.7
2018-Jan-06 21:30N 34°39' E 135°28'0 0.1
2018-Jan-06 21:00N 34°39' E 135°28'0 0.0
2018-Jan-06 02:27N 34°39' E 135°28'0 0.0
2018-Jan-06 02:00N 34°39' E 135°28'0 0.6
2018-Jan-06 01:30N 34°39' E 135°28'0 0.0
2018-Jan-05 05:41N 34°39' E 135°28'0 0.4
2018-Jan-05 05:31N 34°39' E 135°28'4 7.9
2018-Jan-05 05:01N 34°38' E 135°23'611.4
2018-Jan-05 04:30N 34°34' E 135°18'611.3
2018-Jan-05 04:01N 34°30' E 135°13'611.3
2018-Jan-05 03:31N 34°26' E 135°08'611.2
2018-Jan-05 03:01N 34°22' E 135°04'510.7
2018-Jan-05 02:30N 34°18' E 134°60'510.8
2018-Jan-05 02:00N 34°13' E 135°02'611.6
2018-Jan-05 01:30N 34°07' E 135°02'611.6
2018-Jan-05 01:00N 34°01' E 135°03'611.6
2018-Jan-05 00:30N 33°55' E 135°02'117 8.6
2018-Jan-04 10:57N 34°34' E 137°15'64 9.2
2018-Jan-04 04:02N 34°36' E 138°33'411.5
2018-Jan-04 03:42N 34°36' E 138°37'311.5
2018-Jan-04 03:25N 34°36' E 138°41'511.5
2018-Jan-04 02:58N 34°35' E 138°47'611.3
2018-Jan-04 02:28N 34°36' E 138°54'810.3
2018-Jan-04 01:41N 34°40' E 139°02'310.6
2018-Jan-04 01:26N 34°42' E 139°04'511.1
2018-Jan-04 01:00N 34°46' E 139°08'1211.2
2018-Jan-03 23:57N 34°55' E 139°18'510.6
2018-Jan-03 23:27N 34°58' E 139°23'510.9
2018-Jan-03 22:57N 35°00' E 139°29'510.6
2018-Jan-03 22:30N 35°03' E 139°34'611.4
2018-Jan-03 22:00N 35°05' E 139°40'611.6
2018-Jan-03 21:30N 35°10' E 139°44'510.8
2018-Jan-03 21:01N 35°15' E 139°46'510.7
2018-Jan-03 20:31N 35°20' E 139°43'3 6.9
2018-Jan-03 20:00N 35°22' E 139°40'0 0.1
2018-Jan-03 19:30N 35°22' E 139°40'0 0.1
2018-Jan-03 19:00N 35°22' E 139°40'0 0.0
2018-Jan-03 18:30N 35°22' E 139°40'0 0.0
2018-Jan-03 18:00N 35°22' E 139°40'0 0.1
2018-Jan-03 17:30N 35°22' E 139°40'0 0.0
2018-Jan-03 17:00N 35°22' E 139°40'0 0.0
2018-Jan-03 16:30N 35°22' E 139°40'0 0.0
2018-Jan-03 15:57N 35°22' E 139°40'0 0.0
2018-Jan-03 15:30N 35°22' E 139°40'0 0.1
2018-Jan-03 15:00N 35°22' E 139°40'0 0.0
2018-Jan-03 14:30N 35°22' E 139°40'0 0.0
2018-Jan-03 14:00N 35°22' E 139°40'0 0.0
2018-Jan-03 13:30N 35°22' E 139°40'0 0.0
2018-Jan-03 13:00N 35°22' E 139°40'0 0.1
2018-Jan-03 12:30N 35°22' E 139°40'0 0.0
2018-Jan-03 12:00N 35°22' E 139°40'0 0.0
2018-Jan-03 11:30N 35°22' E 139°40'0 0.0
2018-Jan-03 11:00N 35°22' E 139°40'0 0.0
2018-Jan-03 10:30N 35°22' E 139°40'0 0.0
2018-Jan-03 10:00N 35°22' E 139°40'0 0.1
2018-Jan-03 09:30N 35°22' E 139°40'0 0.0
2018-Jan-03 09:00N 35°22' E 139°40'0 0.0
2018-Jan-03 08:30N 35°22' E 139°40'0 0.0
2018-Jan-03 08:00N 35°22' E 139°40'0 0.0
2018-Jan-03 07:30N 35°22' E 139°40'0 0.0
2018-Jan-03 07:00N 35°22' E 139°40'0 0.0
2018-Jan-03 06:30N 35°22' E 139°40'0 0.0
2018-Jan-03 06:00N 35°22' E 139°40'0 0.0
2018-Jan-03 05:30N 35°22' E 139°40'0 0.0
2018-Jan-03 05:00N 35°22' E 139°40'0 0.0
2018-Jan-03 04:30N 35°22' E 139°40'0 0.0
2018-Jan-03 04:00N 35°22' E 139°40'0 0.0
2018-Jan-03 03:30N 35°22' E 139°40'0 0.0
2018-Jan-03 03:00N 35°22' E 139°40'0 0.1
2018-Jan-03 02:30N 35°22' E 139°40'0 0.0
2018-Jan-03 02:00N 35°22' E 139°40'0 0.0
2018-Jan-03 01:30N 35°22' E 139°40'0 0.0
2018-Jan-03 01:00N 35°22' E 139°40'0 0.0
2018-Jan-03 00:30N 35°22' E 139°40'0 0.0
2018-Jan-03 00:00N 35°22' E 139°40'0 0.0
2018-Jan-02 23:30N 35°22' E 139°40'0 0.1
2018-Jan-02 22:59N 35°22' E 139°40'0 0.1
2018-Jan-02 22:29N 35°22' E 139°40'0 0.0
2018-Jan-02 21:59N 35°22' E 139°40'0 0.0
2018-Jan-02 21:29N 35°22' E 139°40'0 0.0
2018-Jan-02 20:59N 35°22' E 139°40'0 0.1
2018-Jan-02 20:29N 35°22' E 139°40'0 0.0
2018-Jan-02 19:59N 35°22' E 139°40'0 0.0
2018-Jan-02 19:29N 35°22' E 139°40'0 0.0
2018-Jan-02 18:59N 35°22' E 139°40'0 0.1
2018-Jan-02 18:29N 35°22' E 139°40'0 0.0
2018-Jan-02 17:59N 35°22' E 139°40'0 0.0
2018-Jan-02 17:26N 35°22' E 139°40'0 0.1
2018-Jan-02 16:59N 35°22' E 139°40'0 0.0
2018-Jan-02 16:29N 35°22' E 139°40'0 0.0
2018-Jan-02 15:59N 35°22' E 139°40'0 0.0
2018-Jan-02 15:29N 35°22' E 139°40'0 0.0
2018-Jan-02 14:59N 35°22' E 139°40'0 0.0
2018-Jan-02 14:29N 35°22' E 139°40'0 0.0
2018-Jan-02 13:59N 35°22' E 139°40'0 0.0
2018-Jan-02 13:29N 35°22' E 139°40'0 0.1
2018-Jan-02 12:59N 35°22' E 139°40'0 0.0
2018-Jan-02 12:29N 35°22' E 139°40'0 0.1
2018-Jan-02 11:59N 35°22' E 139°40'0 0.0
2018-Jan-02 11:29N 35°22' E 139°40'0 0.0
2018-Jan-02 10:59N 35°22' E 139°40'0 0.0
2018-Jan-02 10:29N 35°22' E 139°40'0 0.1
2018-Jan-02 09:59N 35°22' E 139°40'0 0.0
2018-Jan-02 09:29N 35°22' E 139°40'0 0.0
2018-Jan-02 08:29N 35°22' E 139°40'0 0.1
2018-Jan-02 07:59N 35°22' E 139°40'  
Track history (hours):
 
Tides and Currents Weather Stations Pressure Air Temp Water Temp Dewpoint Dewpoint Depression Visibility Wind Speed Wind Dir Waves Ship Positions

Geian Maru

Last reported at 2018-Jan-12 07:57 UTC. Time now 2018-Jan-20 01:13 UTC.
Position N 34°04' E 132°44'.

Length 62 m; draft 4.3 m.

Type: Cargo ship. MMSI: 431008867.

Date/timePositionNaut miles runAvg speedWind from/ knotsBaromVisibWave heightAir tempDewpointWater temp
2018-Jan-12 07:57N 34°04' E 132°44'512.0
2018-Jan-12 07:30N 34°01' E 132°38'712.0
2018-Jan-12 06:57N 33°57' E 132°32'3311.2
2018-Jan-12 04:02N 33°35' E 132°02'610.6
2018-Jan-12 03:27N 33°31' E 131°58'510.9
2018-Jan-12 03:00N 33°28' E 131°53'611.2
2018-Jan-12 02:29N 33°24' E 131°47'611.6
2018-Jan-12 02:00N 33°21' E 131°42'5 0.6
2018-Jan-11 17:26N 33°16' E 131°40'6 8.4
2018-Jan-11 16:45N 33°22' E 131°41'1 4.7
2018-Jan-11 16:30N 33°23' E 131°41'0 0.0
2018-Jan-11 15:59N 33°23' E 131°41'0 0.0
2018-Jan-11 15:29N 33°23' E 131°41'0 0.0
2018-Jan-11 14:59N 33°23' E 131°41'0 0.1
2018-Jan-11 14:29N 33°23' E 131°41'0 0.0
2018-Jan-11 13:41N 33°23' E 131°41'0 0.3
2018-Jan-11 13:29N 33°23' E 131°41'0 0.0
2018-Jan-11 12:59N 33°23' E 131°41'0 0.0
2018-Jan-11 12:23N 33°23' E 131°41'0 0.0
2018-Jan-11 11:59N 33°23' E 131°41'0 0.0
2018-Jan-11 11:17N 33°23' E 131°41'0 0.0
2018-Jan-11 10:59N 33°23' E 131°41'0 0.0
2018-Jan-11 10:29N 33°23' E 131°41'0 0.1
2018-Jan-11 09:52N 33°23' E 131°41'1810.8
2018-Jan-11 08:11N 33°39' E 131°52'11 9.7
2018-Jan-11 07:01N 33°46' E 132°03'0 4.3
2018-Jan-11 07:01N 33°46' E 132°03'3210.3
2018-Jan-11 03:55N 34°03' E 132°35'511.8
2018-Jan-11 03:30N 34°08' E 132°37'5 1.0
2018-Jan-10 22:14N 34°13' E 132°37'  
2018-Jan-07 02:28N 34°25' E 134°22'712.2
2018-Jan-07 01:53N 34°28' E 134°30'512.2
2018-Jan-07 01:30N 34°30' E 134°35'1212.5
2018-Jan-07 00:31N 34°34' E 134°49'713.1
2018-Jan-07 00:00N 34°37' E 134°57'611.0
2018-Jan-06 23:30N 34°36' E 135°03'510.4
2018-Jan-06 23:00N 34°36' E 135°09'611.6
2018-Jan-06 22:30N 34°37' E 135°16'611.5
2018-Jan-06 22:01N 34°38' E 135°23'4 7.7
2018-Jan-06 21:30N 34°39' E 135°28'0 0.1
2018-Jan-06 21:00N 34°39' E 135°28'0 0.0
2018-Jan-06 02:27N 34°39' E 135°28'0 0.0
2018-Jan-06 02:00N 34°39' E 135°28'0 0.6
2018-Jan-06 01:30N 34°39' E 135°28'0 0.0
2018-Jan-05 05:41N 34°39' E 135°28'0 0.4
2018-Jan-05 05:31N 34°39' E 135°28'4 7.9
2018-Jan-05 05:01N 34°38' E 135°23'611.4
2018-Jan-05 04:30N 34°34' E 135°18'611.3
2018-Jan-05 04:01N 34°30' E 135°13'611.3
2018-Jan-05 03:31N 34°26' E 135°08'611.2
2018-Jan-05 03:01N 34°22' E 135°04'510.7
2018-Jan-05 02:30N 34°18' E 134°60'510.8
2018-Jan-05 02:00N 34°13' E 135°02'611.6
2018-Jan-05 01:30N 34°07' E 135°02'611.6
2018-Jan-05 01:00N 34°01' E 135°03'611.6
2018-Jan-05 00:30N 33°55' E 135°02'117 8.6
2018-Jan-04 10:57N 34°34' E 137°15'64 9.2
2018-Jan-04 04:02N 34°36' E 138°33'411.5
2018-Jan-04 03:42N 34°36' E 138°37'311.5
2018-Jan-04 03:25N 34°36' E 138°41'511.5
2018-Jan-04 02:58N 34°35' E 138°47'611.3
2018-Jan-04 02:28N 34°36' E 138°54'810.3
2018-Jan-04 01:41N 34°40' E 139°02'310.6
2018-Jan-04 01:26N 34°42' E 139°04'511.1
2018-Jan-04 01:00N 34°46' E 139°08'1211.2
2018-Jan-03 23:57N 34°55' E 139°18'510.6
2018-Jan-03 23:27N 34°58' E 139°23'510.9
2018-Jan-03 22:57N 35°00' E 139°29'510.6
2018-Jan-03 22:30N 35°03' E 139°34'611.4
2018-Jan-03 22:00N 35°05' E 139°40'611.6
2018-Jan-03 21:30N 35°10' E 139°44'510.8
2018-Jan-03 21:01N 35°15' E 139°46'510.7
2018-Jan-03 20:31N 35°20' E 139°43'3 6.9
2018-Jan-03 20:00N 35°22' E 139°40'0 0.1
2018-Jan-03 19:30N 35°22' E 139°40'0 0.1
2018-Jan-03 19:00N 35°22' E 139°40'0 0.0
2018-Jan-03 18:30N 35°22' E 139°40'0 0.0
2018-Jan-03 18:00N 35°22' E 139°40'0 0.1
2018-Jan-03 17:30N 35°22' E 139°40'0 0.0
2018-Jan-03 17:00N 35°22' E 139°40'0 0.0
2018-Jan-03 16:30N 35°22' E 139°40'0 0.0
2018-Jan-03 15:57N 35°22' E 139°40'0 0.0
2018-Jan-03 15:30N 35°22' E 139°40'0 0.1
2018-Jan-03 15:00N 35°22' E 139°40'0 0.0
2018-Jan-03 14:30N 35°22' E 139°40'0 0.0
2018-Jan-03 14:00N 35°22' E 139°40'0 0.0
2018-Jan-03 13:30N 35°22' E 139°40'0 0.0
2018-Jan-03 13:00N 35°22' E 139°40'0 0.1
2018-Jan-03 12:30N 35°22' E 139°40'0 0.0
2018-Jan-03 12:00N 35°22' E 139°40'0 0.0
2018-Jan-03 11:30N 35°22' E 139°40'0 0.0
2018-Jan-03 11:00N 35°22' E 139°40'0 0.0
2018-Jan-03 10:30N 35°22' E 139°40'0 0.0
2018-Jan-03 10:00N 35°22' E 139°40'0 0.1
2018-Jan-03 09:30N 35°22' E 139°40'0 0.0
2018-Jan-03 09:00N 35°22' E 139°40'0 0.0
2018-Jan-03 08:30N 35°22' E 139°40'0 0.0
2018-Jan-03 08:00N 35°22' E 139°40'0 0.0
2018-Jan-03 07:30N 35°22' E 139°40'0 0.0
2018-Jan-03 07:00N 35°22' E 139°40'0 0.0
2018-Jan-03 06:30N 35°22' E 139°40'0 0.0
2018-Jan-03 06:00N 35°22' E 139°40'0 0.0
2018-Jan-03 05:30N 35°22' E 139°40'0 0.0
2018-Jan-03 05:00N 35°22' E 139°40'0 0.0
2018-Jan-03 04:30N 35°22' E 139°40'0 0.0
2018-Jan-03 04:00N 35°22' E 139°40'0 0.0
2018-Jan-03 03:30N 35°22' E 139°40'0 0.0
2018-Jan-03 03:00N 35°22' E 139°40'0 0.1
2018-Jan-03 02:30N 35°22' E 139°40'0 0.0
2018-Jan-03 02:00N 35°22' E 139°40'0 0.0
2018-Jan-03 01:30N 35°22' E 139°40'0 0.0
2018-Jan-03 01:00N 35°22' E 139°40'0 0.0
2018-Jan-03 00:30N 35°22' E 139°40'0 0.0
2018-Jan-03 00:00N 35°22' E 139°40'0 0.0
2018-Jan-02 23:30N 35°22' E 139°40'0 0.1
2018-Jan-02 22:59N 35°22' E 139°40'0 0.1
2018-Jan-02 22:29N 35°22' E 139°40'0 0.0
2018-Jan-02 21:59N 35°22' E 139°40'0 0.0
2018-Jan-02 21:29N 35°22' E 139°40'0 0.0
2018-Jan-02 20:59N 35°22' E 139°40'0 0.1
2018-Jan-02 20:29N 35°22' E 139°40'0 0.0
2018-Jan-02 19:59N 35°22' E 139°40'0 0.0
2018-Jan-02 19:29N 35°22' E 139°40'0 0.0
2018-Jan-02 18:59N 35°22' E 139°40'0 0.1
2018-Jan-02 18:29N 35°22' E 139°40'0 0.0
2018-Jan-02 17:59N 35°22' E 139°40'0 0.0
2018-Jan-02 17:26N 35°22' E 139°40'0 0.1
2018-Jan-02 16:59N 35°22' E 139°40'0 0.0
2018-Jan-02 16:29N 35°22' E 139°40'0 0.0
2018-Jan-02 15:59N 35°22' E 139°40'0 0.0
2018-Jan-02 15:29N 35°22' E 139°40'0 0.0
2018-Jan-02 14:59N 35°22' E 139°40'0 0.0
2018-Jan-02 14:29N 35°22' E 139°40'0 0.0
2018-Jan-02 13:59N 35°22' E 139°40'0 0.0
2018-Jan-02 13:29N 35°22' E 139°40'0 0.1
2018-Jan-02 12:59N 35°22' E 139°40'0 0.0
2018-Jan-02 12:29N 35°22' E 139°40'0 0.1
2018-Jan-02 11:59N 35°22' E 139°40'0 0.0
2018-Jan-02 11:29N 35°22' E 139°40'0 0.0
2018-Jan-02 10:59N 35°22' E 139°40'0 0.0
2018-Jan-02 10:29N 35°22' E 139°40'0 0.1
2018-Jan-02 09:59N 35°22' E 139°40'0 0.0
2018-Jan-02 09:29N 35°22' E 139°40'0 0.0
2018-Jan-02 08:29N 35°22' E 139°40'0 0.1
2018-Jan-02 07:59N 35°22' E 139°40'  

Dump ship's entire track history